Time;durP1;ratioP1;P1;durP2;ratioP2;P2;SDS_P1;SDS_P2;PMS_P1;PMS_P2;Temp;Humidity;BMP_temperature;BMP_pressure;BME280_temperature;BME280_humidity;BME280_pressure;Samples;Min_cycle;Max_cycle;Signal;HPM_P1;HPM_P2
2023/07/31 00:02:00;;;;;;;1.85;1.20;;;;;;;16.39;100.00;100753.78;5001464;28;20088;-78
2023/07/31 00:04:25;;;;;;;3.97;1.52;;;;;;;16.31;100.00;100740.97;5006157;28;20041;-79
2023/07/31 00:06:50;;;;;;;2.92;1.48;;;;;;;16.26;100.00;100741.44;5007313;28;20046;-78
2023/07/31 00:09:16;;;;;;;4.50;1.15;;;;;;;16.28;100.00;100726.91;5005731;28;20033;-79
2023/07/31 00:11:41;;;;;;;1.88;1.25;;;;;;;16.17;100.00;100743.94;5006198;28;20084;-78
2023/07/31 00:14:06;;;;;;;1.30;0.82;;;;;;;16.21;100.00;100736.22;4994495;28;20025;-78
2023/07/31 00:16:32;;;;;;;4.88;1.13;;;;;;;16.23;100.00;100719.66;4993552;28;20034;-78
2023/07/31 00:18:57;;;;;;;3.70;1.05;;;;;;;16.37;100.00;100722.31;5003297;28;20075;-78
2023/07/31 00:21:22;;;;;;;2.65;1.02;;;;;;;16.30;100.00;100724.47;5001763;28;20026;-79
2023/07/31 00:23:48;;;;;;;3.92;1.75;;;;;;;16.39;100.00;100727.56;5003975;28;20112;-79
2023/07/31 00:26:13;;;;;;;5.13;0.95;;;;;;;16.31;100.00;100715.53;5014353;28;20036;-79
2023/07/31 00:28:39;;;;;;;1.40;0.70;;;;;;;16.42;100.00;100710.56;5006637;28;20026;-79
2023/07/31 00:31:04;;;;;;;2.97;0.80;;;;;;;16.22;100.00;100709.59;4994925;28;20037;-78
2023/07/31 00:33:31;;;;;;;1.55;0.98;;;;;;;16.24;100.00;100698.69;5003166;28;20037;-79
2023/07/31 00:35:56;;;;;;;1.67;0.68;;;;;;;16.10;100.00;100698.84;5004939;28;20041;-79
2023/07/31 00:38:22;;;;;;;1.42;0.88;;;;;;;16.03;100.00;100694.88;5005483;28;20030;-79
2023/07/31 00:40:47;;;;;;;0.88;0.52;;;;;;;16.28;100.00;100690.97;4996823;28;20022;-79
2023/07/31 00:43:12;;;;;;;1.67;0.80;;;;;;;16.22;100.00;100689.84;5000419;28;20399;-79
2023/07/31 00:45:38;;;;;;;1.88;0.80;;;;;;;16.15;100.00;100695.56;5003134;28;20114;-79
2023/07/31 00:48:06;;;;;;;0.63;0.50;;;;;;;16.52;100.00;100691.06;4997882;28;20030;-79
2023/07/31 00:50:31;;;;;;;0.82;0.50;;;;;;;16.42;100.00;100704.94;4996798;28;20537;-79
2023/07/31 00:52:57;;;;;;;1.05;0.65;;;;;;;16.40;100.00;100690.44;4995858;28;20026;-79
2023/07/31 00:55:23;;;;;;;1.67;1.05;;;;;;;16.19;100.00;100696.31;4986625;28;20038;-79
2023/07/31 00:57:49;;;;;;;1.38;0.95;;;;;;;16.25;100.00;100688.97;5004580;28;20029;-79
2023/07/31 01:00:14;;;;;;;0.80;0.55;;;;;;;16.32;100.00;100686.09;5004113;28;20025;-79
2023/07/31 01:02:40;;;;;;;1.23;0.50;;;;;;;16.42;100.00;100676.69;5002983;28;20463;-79
2023/07/31 01:05:06;;;;;;;0.90;0.40;;;;;;;16.26;100.00;100676.47;5001570;28;20038;-79
2023/07/31 01:07:37;;;;;;;0.70;0.68;;;;;;;16.53;100.00;100682.19;4997058;28;20050;-79
2023/07/31 01:10:18;;;;;;;2.23;0.60;;;;;;;16.50;100.00;100685.06;4999278;28;20163;-80
2023/07/31 01:12:46;;;;;;;1.15;0.60;;;;;;;16.46;100.00;100680.25;5005162;28;20034;-79
2023/07/31 01:15:13;;;;;;;1.95;0.75;;;;;;;16.28;100.00;100671.22;5005573;28;20116;-79
2023/07/31 01:17:40;;;;;;;0.65;0.60;;;;;;;16.33;100.00;100665.06;5000086;28;20049;-79
2023/07/31 01:20:13;;;;;;;1.23;0.73;;;;;;;16.32;100.00;100665.50;5002809;28;20030;-79
2023/07/31 01:23:13;;;;;;;3.70;0.65;;;;;;;16.49;100.00;100672.16;5000274;28;20325;-79
2023/07/31 01:26:01;;;;;;;0.73;0.50;;;;;;;16.33;100.00;100659.44;4999484;28;20041;-79
2023/07/31 01:28:43;;;;;;;1.08;0.68;;;;;;;16.41;100.00;100649.63;4994611;28;20038;-78
2023/07/31 01:31:14;;;;;;;1.45;0.95;;;;;;;16.26;100.00;100653.88;4994326;28;20121;-78
2023/07/31 01:33:40;;;;;;;2.08;0.93;;;;;;;16.37;100.00;100651.72;4999407;28;20057;-78
2023/07/31 01:36:06;;;;;;;1.98;1.23;;;;;;;16.49;100.00;100661.66;4996543;28;20135;-78
2023/07/31 01:38:31;;;;;;;1.85;0.88;;;;;;;16.46;100.00;100665.31;5000342;28;20179;-80
2023/07/31 01:40:57;;;;;;;2.03;0.93;;;;;;;16.32;100.00;100663.50;5002491;28;20041;-79
2023/07/31 01:43:24;;;;;;;1.95;0.95;;;;;;;16.43;100.00;100666.97;5013790;28;20566;-79
2023/07/31 01:45:49;;;;;;;1.25;0.80;;;;;;;16.46;100.00;100659.66;5009959;28;20029;-79
2023/07/31 01:48:15;;;;;;;1.58;0.98;;;;;;;16.25;100.00;100655.09;5002097;28;20093;-81
2023/07/31 01:50:40;;;;;;;3.88;1.00;;;;;;;16.51;100.00;100645.09;4997278;28;20057;-81
2023/07/31 01:53:05;;;;;;;1.92;1.10;;;;;;;16.75;100.00;100642.31;5007823;28;20132;-81
2023/07/31 01:55:31;;;;;;;2.97;1.40;;;;;;;16.79;100.00;100637.41;5003800;28;20388;-80
2023/07/31 01:57:57;;;;;;;3.15;1.45;;;;;;;16.43;100.00;100638.72;5006395;28;20521;-80
2023/07/31 02:00:23;;;;;;;1.40;0.80;;;;;;;16.62;100.00;100616.66;5000905;28;20033;-81
2023/07/31 02:02:48;;;;;;;3.10;1.27;;;;;;;16.63;100.00;100640.88;5007002;28;20017;-81
2023/07/31 02:05:13;;;;;;;2.83;1.23;;;;;;;16.76;100.00;100626.94;4996998;28;20055;-81
2023/07/31 02:07:39;;;;;;;4.20;1.23;;;;;;;16.93;100.00;100642.06;5004489;28;20050;-81
2023/07/31 02:10:04;;;;;;;1.45;0.90;;;;;;;16.80;100.00;100622.91;5005638;28;20065;-81
2023/07/31 02:12:31;;;;;;;2.28;1.15;;;;;;;16.90;100.00;100634.44;5005918;28;20030;-81
2023/07/31 02:14:57;;;;;;;4.00;1.10;;;;;;;16.96;100.00;100629.91;5016376;28;20544;-80
2023/07/31 02:17:22;;;;;;;1.20;0.95;;;;;;;16.83;100.00;100638.19;4986928;28;20031;-79
2023/07/31 02:19:48;;;;;;;2.20;1.08;;;;;;;16.92;100.00;100629.16;4997237;28;20026;-79
2023/07/31 02:22:14;;;;;;;1.85;0.90;;;;;;;16.82;100.00;100617.63;4998480;28;20034;-79
2023/07/31 02:24:39;;;;;;;2.03;0.80;;;;;;;16.74;100.00;100601.97;4998793;28;20033;-80
2023/07/31 02:27:05;;;;;;;1.75;1.02;;;;;;;16.42;100.00;100594.75;4998545;28;20482;-80
2023/07/31 02:29:30;;;;;;;1.23;0.88;;;;;;;16.56;100.00;100604.25;5002790;28;20029;-80
2023/07/31 02:31:56;;;;;;;3.10;0.98;;;;;;;16.78;100.00;100602.72;4995434;28;20027;-80
2023/07/31 02:34:21;;;;;;;3.97;1.63;;;;;;;16.79;100.00;100604.28;4990901;28;20593;-79
2023/07/31 02:36:46;;;;;;;2.72;1.35;;;;;;;16.73;100.00;100577.72;5000835;28;20420;-79
2023/07/31 02:39:12;;;;;;;4.82;1.40;;;;;;;16.76;100.00;100582.56;5006655;28;20463;-81
2023/07/31 02:41:37;;;;;;;3.33;1.40;;;;;;;16.86;100.00;100584.44;5004600;28;20022;-81
2023/07/31 02:44:03;;;;;;;2.05;1.17;;;;;;;16.86;100.00;100586.44;5002223;28;20044;-81
2023/07/31 02:46:29;;;;;;;2.28;1.30;;;;;;;16.63;100.00;100584.34;5001308;28;20025;-81
2023/07/31 02:48:54;;;;;;;3.47;1.50;;;;;;;16.55;100.00;100582.84;5004601;28;20033;-81
2023/07/31 02:51:21;;;;;;;3.85;1.63;;;;;;;16.63;100.00;100573.03;5004947;28;20537;-81
2023/07/31 02:53:47;;;;;;;1.88;1.40;;;;;;;16.59;100.00;100567.47;4996322;28;20081;-80
2023/07/31 02:56:13;;;;;;;3.13;1.65;;;;;;;16.50;100.00;100586.16;4996309;28;20144;-80
2023/07/31 02:58:39;;;;;;;3.22;1.42;;;;;;;16.58;100.00;100584.84;5001379;28;20133;-81
2023/07/31 03:01:05;;;;;;;6.85;2.15;;;;;;;16.66;100.00;100589.16;5013118;28;20038;-81
2023/07/31 03:03:30;;;;;;;3.63;1.35;;;;;;;16.52;100.00;100566.78;5000912;28;20117;-81
2023/07/31 03:05:56;;;;;;;4.15;1.80;;;;;;;16.28;100.00;100565.91;5012315;28;20044;-81
2023/07/31 03:08:21;;;;;;;4.57;1.85;;;;;;;16.43;100.00;100578.59;4997139;28;20042;-81
2023/07/31 03:10:47;;;;;;;5.53;1.95;;;;;;;16.52;100.00;100552.66;4999630;28;20446;-82
2023/07/31 03:13:12;;;;;;;3.40;2.20;;;;;;;16.71;100.00;100563.22;5004029;28;20449;-81
2023/07/31 03:15:37;;;;;;;5.20;1.77;;;;;;;16.71;100.00;100576.56;5015951;28;20053;-81
2023/07/31 03:18:03;;;;;;;3.88;2.25;;;;;;;16.78;100.00;100574.44;5017604;28;20482;-82
2023/07/31 03:20:28;;;;;;;6.35;2.05;;;;;;;16.68;100.00;100575.41;4995662;28;20129;-81
2023/07/31 03:22:54;;;;;;;4.95;2.50;;;;;;;16.68;100.00;100581.06;5005104;28;20038;-81
2023/07/31 03:25:19;;;;;;;7.35;2.53;;;;;;;16.74;100.00;100575.69;5000854;28;20022;-81
2023/07/31 03:27:44;;;;;;;7.38;3.25;;;;;;;16.57;100.00;100569.09;4990438;28;20487;-81
2023/07/31 03:30:11;;;;;;;5.80;2.45;;;;;;;16.73;100.00;100577.72;5003496;28;20439;-80
2023/07/31 03:32:37;;;;;;;8.63;3.25;;;;;;;16.64;100.00;100569.00;4989240;28;20033;-81
2023/07/31 03:35:03;;;;;;;10.30;3.88;;;;;;;16.74;100.00;100568.03;4988035;28;20391;-81
2023/07/31 03:37:29;;;;;;;13.32;4.13;;;;;;;16.62;100.00;100577.91;4992666;28;20030;-80
2023/07/31 03:39:54;;;;;;;13.23;3.70;;;;;;;16.74;100.00;100568.03;4994543;28;20430;-81
2023/07/31 03:42:19;;;;;;;12.10;3.85;;;;;;;16.79;100.00;100576.03;5001969;28;20080;-81
2023/07/31 03:44:45;;;;;;;8.88;4.07;;;;;;;16.70;100.00;100577.78;4986427;28;20037;-80
2023/07/31 03:47:10;;;;;;;11.10;4.15;;;;;;;16.73;100.00;100574.13;4989216;28;20483;-81
2023/07/31 03:49:36;;;;;;;12.07;5.03;;;;;;;16.66;100.00;100578.66;4988197;28;20560;-81
2023/07/31 03:52:01;;;;;;;10.73;4.78;;;;;;;16.59;100.00;100580.78;5005791;28;20501;-80
2023/07/31 03:54:27;;;;;;;12.23;5.05;;;;;;;16.69;100.00;100577.00;5004759;28;20092;-80
2023/07/31 03:56:52;;;;;;;11.77;4.70;;;;;;;16.71;100.00;100576.56;5000839;28;20489;-81
2023/07/31 03:59:17;;;;;;;16.77;5.40;;;;;;;16.67;100.00;100570.97;4995753;28;20030;-81
2023/07/31 04:01:43;;;;;;;12.40;5.28;;;;;;;16.67;100.00;100568.97;5002102;28;20061;-81
2023/07/31 04:04:08;;;;;;;14.60;5.28;;;;;;;16.57;100.00;100572.75;4991609;28;20041;-81
2023/07/31 04:06:34;;;;;;;11.93;5.40;;;;;;;16.65;100.00;100576.25;5000227;28;20704;-81
2023/07/31 04:08:59;;;;;;;18.02;5.47;;;;;;;16.57;100.00;100572.75;5011545;28;20030;-81
2023/07/31 04:11:24;;;;;;;19.27;5.82;;;;;;;16.62;100.00;100568.63;4998799;28;20041;-81
2023/07/31 04:13:50;;;;;;;18.63;5.15;;;;;;;16.66;100.00;100558.06;4997055;28;20037;-81
2023/07/31 04:16:15;;;;;;;14.30;4.50;;;;;;;16.62;100.00;100549.66;4991145;28;20030;-78
2023/07/31 04:18:41;;;;;;;15.98;5.22;;;;;;;16.67;100.00;100562.50;5002716;28;20028;-80
2023/07/31 04:21:06;;;;;;;19.00;5.18;;;;;;;16.76;100.00;100565.59;5004268;28;20040;-81
2023/07/31 04:23:31;;;;;;;23.83;6.63;;;;;;;16.66;100.00;100560.91;4991956;28;20088;-81
2023/07/31 04:25:57;;;;;;;15.55;4.68;;;;;;;16.51;100.00;100542.56;5000531;28;20061;-80
2023/07/31 04:28:22;;;;;;;14.82;5.28;;;;;;;16.54;100.00;100536.06;4992124;28;20144;-81
2023/07/31 04:30:48;;;;;;;18.92;5.45;;;;;;;16.78;100.00;100551.00;4996325;28;20709;-82
2023/07/31 04:33:13;;;;;;;17.77;5.30;;;;;;;16.74;100.00;100548.25;5007145;28;20072;-81
2023/07/31 04:35:39;;;;;;;26.42;5.45;;;;;;;16.61;100.00;100525.47;5000395;28;20072;-81
2023/07/31 04:38:04;;;;;;;13.98;5.25;;;;;;;16.61;100.00;100525.47;5003483;28;20033;-81
2023/07/31 04:40:30;;;;;;;15.57;5.20;;;;;;;16.62;100.00;100531.91;5005069;28;20022;-81
2023/07/31 04:42:55;;;;;;;24.98;7.82;;;;;;;16.75;100.00;100547.03;5003928;28;20556;-81
2023/07/31 04:45:21;;;;;;;19.83;6.72;;;;;;;16.64;100.00;100535.88;5003565;28;20042;-81
2023/07/31 04:47:46;;;;;;;19.45;6.28;;;;;;;16.68;100.00;100541.50;5005510;28;20514;-81
2023/07/31 04:50:11;;;;;;;13.18;5.28;;;;;;;16.68;100.00;100535.84;5001636;28;20034;-81
2023/07/31 04:52:37;;;;;;;21.13;7.55;;;;;;;16.58;100.00;100534.78;4999108;28;20030;-81
2023/07/31 04:55:02;;;;;;;13.35;5.03;;;;;;;16.54;100.00;100519.91;5004720;28;20032;-81
2023/07/31 04:57:28;;;;;;;14.98;5.40;;;;;;;16.64;100.00;100535.09;5005078;28;20584;-81
2023/07/31 04:59:53;;;;;;;18.45;5.88;;;;;;;16.69;100.00;100530.97;5016837;28;20034;-81
2023/07/31 05:02:19;;;;;;;21.00;6.22;;;;;;;16.57;100.00;100519.06;5003933;28;20081;-81
2023/07/31 05:04:44;;;;;;;18.08;5.78;;;;;;;16.68;100.00;100521.72;5010624;28;20537;-81
2023/07/31 05:07:10;;;;;;;18.40;5.53;;;;;;;16.65;100.00;100520.53;4999873;28;20034;-81
2023/07/31 05:09:35;;;;;;;23.83;5.50;;;;;;;16.51;100.00;100508.66;4998151;28;20061;-81
2023/07/31 05:12:00;;;;;;;19.40;6.20;;;;;;;16.65;100.00;100531.03;4999081;28;20092;-81
2023/07/31 05:14:26;;;;;;;21.17;5.47;;;;;;;16.46;100.00;100519.25;5006145;28;20025;-81
2023/07/31 05:16:52;;;;;;;16.30;4.90;;;;;;;16.64;100.00;100515.31;5017020;28;20357;-81
2023/07/31 05:19:18;;;;;;;18.02;6.63;;;;;;;16.54;100.00;100513.47;5007703;28;20022;-81
2023/07/31 05:21:43;;;;;;;16.85;5.28;;;;;;;16.75;100.00;100515.13;5006793;28;20038;-81
2023/07/31 05:24:10;;;;;;;20.80;6.43;;;;;;;16.67;100.00;100515.28;5008417;28;20030;-81
2023/07/31 05:26:36;;;;;;;18.02;6.40;;;;;;;16.54;100.00;100514.25;5002359;28;20034;-82
2023/07/31 05:29:01;;;;;;;14.43;6.45;;;;;;;16.62;100.00;100526.25;5020351;28;20043;-81
2023/07/31 05:31:27;;;;;;;18.67;5.05;;;;;;;16.63;100.00;100522.19;5004350;28;20030;-81
2023/07/31 05:33:54;;;;;;;11.35;4.85;;;;;;;16.62;100.00;100512.91;5008831;28;20469;-81
2023/07/31 05:36:19;;;;;;;16.33;6.28;;;;;;;16.66;100.00;100518.50;5008743;28;20040;-81
2023/07/31 05:38:45;;;;;;;18.02;7.05;;;;;;;16.50;100.00;100516.34;5021462;28;20482;-81
2023/07/31 05:41:14;;;;;;;22.65;6.68;;;;;;;16.51;100.00;100519.94;5007094;28;20079;-82
2023/07/31 05:43:40;;;;;;;24.77;6.07;;;;;;;16.58;100.00;100514.19;5005718;28;20045;-82
2023/07/31 05:46:06;;;;;;;23.88;6.68;;;;;;;16.54;100.00;100502.16;4998935;28;20054;-81
2023/07/31 05:48:34;;;;;;;16.77;6.25;;;;;;;16.54;100.00;100508.59;5022213;28;20029;-81
2023/07/31 05:51:00;;;;;;;15.15;6.07;;;;;;;16.53;100.00;100506.19;5007591;28;20490;-82
2023/07/31 05:53:27;;;;;;;17.15;6.60;;;;;;;16.54;100.00;100490.84;5004911;28;20029;-82
2023/07/31 05:55:52;;;;;;;17.90;5.63;;;;;;;16.70;100.00;100515.59;5002694;28;20440;-81
2023/07/31 05:58:18;;;;;;;18.08;6.20;;;;;;;16.61;100.00;100507.69;5001192;28;20029;-81
2023/07/31 06:00:43;;;;;;;13.85;5.10;;;;;;;16.70;100.00;100505.13;4995617;28;20168;-81
2023/07/31 06:03:09;;;;;;;15.35;6.25;;;;;;;16.63;100.00;100499.56;5001666;28;20505;-81
2023/07/31 06:05:34;;;;;;;13.65;5.47;;;;;;;16.39;100.00;100487.47;5009239;28;20033;-81
2023/07/31 06:08:00;;;;;;;12.95;5.47;;;;;;;16.49;100.00;100494.97;5005541;28;20058;-81
2023/07/31 06:10:26;;;;;;;11.80;5.82;;;;;;;16.49;100.00;100500.63;5012142;28;20022;-81
2023/07/31 06:12:51;;;;;;;10.48;5.07;;;;;;;16.62;100.00;100486.69;5000061;28;20056;-81
2023/07/31 06:15:21;;;;;;;11.73;5.22;;;;;;;16.57;100.00;100496.47;4997511;28;20018;-81
2023/07/31 06:17:47;;;;;;;17.65;5.93;;;;;;;16.69;100.00;100495.03;5005188;28;20100;-81
2023/07/31 06:20:12;;;;;;;11.80;4.30;;;;;;;16.62;100.00;100487.47;5017166;28;20212;-81
2023/07/31 06:22:37;;;;;;;9.43;3.63;;;;;;;16.50;100.00;100481.63;5005890;28;20026;-81
2023/07/31 06:25:03;;;;;;;10.05;3.92;;;;;;;16.45;100.00;100477.28;4995191;28;20585;-81
2023/07/31 06:27:28;;;;;;;8.77;3.47;;;;;;;16.51;100.00;100491.69;5000944;28;20030;-81
2023/07/31 06:29:54;;;;;;;11.32;4.65;;;;;;;16.62;100.00;100481.03;5017950;28;20030;-81
2023/07/31 06:32:19;;;;;;;12.35;4.75;;;;;;;16.55;100.00;100481.13;5003268;28;20060;-81
2023/07/31 06:34:45;;;;;;;9.90;4.05;;;;;;;16.62;100.00;100490.31;4996118;28;20049;-81
2023/07/31 06:37:10;;;;;;;10.45;4.30;;;;;;;16.58;100.00;100469.00;5003137;28;20026;-81
2023/07/31 06:39:37;;;;;;;8.68;3.17;;;;;;;16.45;100.00;100466.78;5011116;28;20018;-81
2023/07/31 06:42:03;;;;;;;7.65;2.97;;;;;;;16.71;100.00;100478.44;5003949;28;20391;-81
2023/07/31 06:44:31;;;;;;;7.60;3.33;;;;;;;16.60;100.00;100460.88;4998168;28;20026;-81
2023/07/31 06:46:56;;;;;;;7.15;3.05;;;;;;;16.64;100.00;100461.63;4999509;28;20042;-81
2023/07/31 06:49:22;;;;;;;9.23;3.53;;;;;;;16.61;100.00;100462.47;5010705;28;20076;-82
2023/07/31 06:51:50;;;;;;;7.15;3.13;;;;;;;16.62;100.00;100455.59;5006602;28;20025;-82
2023/07/31 06:54:15;;;;;;;8.63;3.03;;;;;;;16.57;100.00;100456.09;5002116;28;20053;-82
2023/07/31 06:56:41;;;;;;;5.25;2.75;;;;;;;16.67;100.00;100446.63;5007003;28;20056;-81
2023/07/31 06:59:06;;;;;;;4.75;2.40;;;;;;;16.68;100.00;100428.47;5009639;28;20060;-81
2023/07/31 07:01:32;;;;;;;5.85;3.13;;;;;;;16.64;100.00;100428.50;5007134;28;20072;-81
2023/07/31 07:03:58;;;;;;;4.90;2.38;;;;;;;16.61;100.00;100435.03;5006511;28;20026;-81
2023/07/31 07:06:24;;;;;;;3.90;1.88;;;;;;;16.60;100.00;100439.06;5001547;28;20038;-81
2023/07/31 07:08:50;;;;;;;5.88;2.65;;;;;;;16.59;100.00;100436.69;5005443;28;20049;-81
2023/07/31 07:11:15;;;;;;;8.60;2.13;;;;;;;16.57;100.00;100439.13;5001304;28;20405;-80
2023/07/31 07:13:41;;;;;;;3.83;1.73;;;;;;;16.56;100.00;100432.69;4987368;28;20054;-81
2023/07/31 07:16:06;;;;;;;6.60;2.78;;;;;;;16.63;100.00;100426.94;5004020;28;20026;-80
2023/07/31 07:18:32;;;;;;;3.90;2.15;;;;;;;16.60;100.00;100426.97;5006573;28;20021;-81
2023/07/31 07:20:58;;;;;;;4.88;2.55;;;;;;;16.52;100.00;100402.91;5002737;28;20034;-81
2023/07/31 07:23:23;;;;;;;3.45;1.75;;;;;;;16.75;100.00;100428.31;4998226;28;20022;-81
2023/07/31 07:25:49;;;;;;;4.50;2.33;;;;;;;16.73;100.00;100416.66;5010613;28;20068;-81
2023/07/31 07:28:14;;;;;;;5.07;2.45;;;;;;;16.64;100.00;100416.41;5002805;28;20041;-81
2023/07/31 07:30:41;;;;;;;7.40;2.15;;;;;;;16.59;100.00;100414.91;5003781;28;20032;-81
2023/07/31 07:33:06;;;;;;;5.18;2.28;;;;;;;16.50;100.00;100411.00;5010804;28;20033;-81
2023/07/31 07:35:35;;;;;;;4.03;2.13;;;;;;;16.49;100.00;100417.91;5004485;28;20513;-81
2023/07/31 07:38:04;;;;;;;3.67;2.60;;;;;;;16.61;100.00;100423.72;5010343;28;20025;-81
2023/07/31 07:40:29;;;;;;;4.63;2.20;;;;;;;16.75;100.00;100422.66;5010366;28;20034;-81
2023/07/31 07:42:56;;;;;;;5.85;2.28;;;;;;;16.62;100.00;100407.56;4995377;28;20453;-81
2023/07/31 07:45:21;;;;;;;3.40;1.88;;;;;;;16.61;100.00;100401.13;5000078;28;20029;-82
2023/07/31 07:47:47;;;;;;;4.18;2.10;;;;;;;16.73;100.00;100404.56;5004067;28;20038;-81
2023/07/31 07:50:12;;;;;;;4.32;1.92;;;;;;;16.77;100.00;100386.28;5001680;28;20029;-81
2023/07/31 07:52:38;;;;;;;3.35;1.98;;;;;;;16.91;100.00;100404.22;4999079;28;20426;-81
2023/07/31 07:55:03;;;;;;;6.78;2.30;;;;;;;16.99;100.00;100412.16;5004153;28;20117;-82
2023/07/31 07:57:29;;;;;;;6.22;2.50;;;;;;;16.85;100.00;100390.59;5001687;28;20038;-82
2023/07/31 07:59:55;;;;;;;3.45;2.22;;;;;;;16.96;100.00;100398.09;4999400;28;20400;-82
2023/07/31 08:02:20;;;;;;;2.80;2.13;;;;;;;16.97;100.00;100410.97;5018581;28;20026;-82
2023/07/31 08:04:46;;;;;;;3.92;1.92;;;;;;;17.10;100.00;100409.13;5003087;28;20040;-82
2023/07/31 08:07:12;;;;;;;4.18;2.92;;;;;;;17.13;100.00;100396.94;5000617;28;20313;-82
2023/07/31 08:09:37;;;;;;;4.05;2.22;;;;;;;17.06;100.00;100380.91;5005075;28;20026;-82
2023/07/31 08:12:03;;;;;;;3.28;1.83;;;;;;;16.95;100.00;100385.16;5002136;28;20475;-81
2023/07/31 08:14:29;;;;;;;3.00;1.73;;;;;;;17.07;100.00;100387.34;5005471;28;20096;-82
2023/07/31 08:16:55;;;;;;;4.10;1.92;;;;;;;16.85;100.00;100381.34;5001707;28;20069;-81
2023/07/31 08:19:21;;;;;;;3.03;1.80;;;;;;;16.89;100.00;100376.41;5005467;28;20030;-81
2023/07/31 08:21:47;;;;;;;2.50;1.48;;;;;;;16.92;100.00;100374.75;5003027;28;20049;-81
2023/07/31 08:24:12;;;;;;;2.83;1.70;;;;;;;16.99;100.00;100375.41;5006180;28;20479;-81
2023/07/31 08:26:37;;;;;;;3.22;1.70;;;;;;;17.06;100.00;100380.13;5003777;28;20026;-81
2023/07/31 08:29:03;;;;;;;5.35;2.40;;;;;;;17.06;100.00;100363.16;5004945;28;20026;-81
2023/07/31 08:31:29;;;;;;;2.22;1.33;;;;;;;17.25;100.00;100382.13;5004209;28;20050;-81
2023/07/31 08:33:57;;;;;;;2.50;1.52;;;;;;;17.30;100.00;100382.84;5006079;28;20068;-81
2023/07/31 08:36:23;;;;;;;5.00;1.73;;;;;;;17.20;100.00;100373.34;5004436;28;20026;-81
2023/07/31 08:38:49;;;;;;;2.45;1.23;;;;;;;17.06;100.00;100366.78;5000095;28;20489;-81
2023/07/31 08:41:17;;;;;;;3.80;1.52;;;;;;;17.07;100.00;100357.03;5005252;28;20033;-80
2023/07/31 08:43:45;;;;;;;3.38;1.58;;;;;;;17.10;100.00;100358.22;5003850;28;20458;-81
2023/07/31 08:46:10;;;;;;;2.55;1.90;;;;;;;17.13;100.00;100360.16;5002618;28;20101;-81
2023/07/31 08:48:38;;;;;;;1.85;1.40;;;;;;;17.25;100.00;100359.50;4997618;28;20156;-81
2023/07/31 08:51:04;;;;;;;3.33;1.40;;;;;;;17.15;100.00;100360.53;5006411;28;20435;-81
2023/07/31 08:53:29;;;;;;;2.75;1.63;;;;;;;17.26;100.00;100378.06;4992855;28;20077;-81
2023/07/31 08:55:58;;;;;;;1.60;1.33;;;;;;;17.24;100.00;100357.94;5001153;28;20102;-82
2023/07/31 08:58:24;;;;;;;4.78;1.83;;;;;;;17.20;100.00;100357.22;4993372;28;20041;-81
2023/07/31 09:00:50;;;;;;;2.80;1.45;;;;;;;17.30;100.00;100363.06;4993247;28;20026;-82
2023/07/31 09:03:18;;;;;;;1.50;1.20;;;;;;;17.29;100.00;100367.94;4997920;28;20041;-81
2023/07/31 09:05:46;;;;;;;2.28;1.30;;;;;;;17.40;100.00;100376.19;4995181;28;20030;-81
2023/07/31 09:08:20;;;;;;;2.83;1.50;;;;;;;17.25;100.00;100359.50;4977725;28;20062;-82
2023/07/31 09:10:47;;;;;;;1.50;1.30;;;;;;;17.38;100.00;100373.00;5001886;28;20027;-82
2023/07/31 09:13:13;;;;;;;3.90;1.50;;;;;;;17.38;100.00;100364.50;5009553;28;20036;-82
2023/07/31 09:15:40;;;;;;;3.55;1.40;;;;;;;17.44;100.00;100369.19;5009407;28;20466;-82
2023/07/31 09:18:07;;;;;;;4.57;1.55;;;;;;;17.44;100.00;100369.19;5012528;28;20037;-82
2023/07/31 09:20:33;;;;;;;2.60;1.63;;;;;;;17.54;100.00;100375.88;5008869;28;20425;-82
2023/07/31 09:23:25;;;;;;;3.53;1.40;;;;;;;17.53;100.00;100365.78;5021217;28;20637;-82
2023/07/31 09:25:50;;;;;;;2.75;1.42;;;;;;;17.44;100.00;100351.44;5004663;28;20084;-82
2023/07/31 09:28:16;;;;;;;1.83;1.50;;;;;;;17.48;100.00;100349.31;5012110;28;20486;-81
2023/07/31 09:30:52;;;;;;;2.47;1.60;;;;;;;17.44;100.00;100342.94;5008105;28;20091;-82
2023/07/31 09:33:19;;;;;;;2.47;1.42;;;;;;;17.55;100.00;100349.16;5004366;28;20042;-81
2023/07/31 09:35:45;;;;;;;2.08;1.30;;;;;;;17.53;100.00;100334.66;4994679;28;20030;-81
2023/07/31 09:38:12;;;;;;;2.25;1.35;;;;;;;17.64;100.00;100352.16;5009101;28;20033;-81
2023/07/31 09:40:44;;;;;;;1.83;1.33;;;;;;;17.62;100.00;100351.03;5007887;28;20050;-81
2023/07/31 09:43:12;;;;;;;3.50;2.03;;;;;;;17.58;100.00;100341.81;5019413;28;20034;-81
2023/07/31 09:45:39;;;;;;;3.13;1.80;;;;;;;17.68;100.00;100357.75;5008272;28;20033;-81
2023/07/31 09:48:17;;;;;;;2.97;1.50;;;;;;;17.61;100.00;100341.75;5011513;28;20026;-80
2023/07/31 09:50:45;;;;;;;2.00;1.33;;;;;;;17.75;100.00;100340.63;4997884;28;20038;-80
2023/07/31 09:53:10;;;;;;;2.45;1.50;;;;;;;17.87;100.00;100347.63;5003230;28;20497;-80
2023/07/31 09:55:37;;;;;;;2.33;1.30;;;;;;;17.75;100.00;100340.63;5008063;28;20030;-81
2023/07/31 09:58:12;;;;;;;1.80;1.40;;;;;;;17.72;100.00;100341.47;4989573;28;20117;-81
2023/07/31 10:00:38;;;;;;;1.60;1.30;;;;;;;17.68;100.00;100330.25;4999723;28;20029;-81
2023/07/31 10:03:08;;;;;;;2.03;1.65;;;;;;;17.79;100.00;100330.00;5006213;28;20076;-82
2023/07/31 10:05:39;;;;;;;2.47;1.60;;;;;;;17.87;100.00;100336.31;5018370;28;20022;-82
2023/07/31 10:08:07;;;;;;;1.35;1.25;;;;;;;17.90;100.00;100340.28;5009490;28;20061;-82
2023/07/31 10:10:35;;;;;;;1.83;1.00;;;;;;;17.92;100.00;100321.63;5022760;28;20477;-82
2023/07/31 10:13:02;;;;;;;3.42;1.20;;;;;;;17.99;100.00;100327.09;5004437;28;20048;-82
2023/07/31 10:15:31;;;;;;;2.50;1.52;;;;;;;18.10;100.00;100332.50;5008567;28;20159;-82
2023/07/31 10:17:58;;;;;;;2.15;1.60;;;;;;;18.14;100.00;100338.88;5008019;28;20486;-82
2023/07/31 10:20:26;;;;;;;2.17;1.48;;;;;;;18.13;100.00;100330.81;5006513;28;20401;-82
2023/07/31 10:22:51;;;;;;;1.33;1.23;;;;;;;18.13;100.00;100330.81;4990493;28;20522;-82
2023/07/31 10:25:19;;;;;;;3.30;1.42;;;;;;;17.97;100.00;100321.09;5007236;28;20136;-82
2023/07/31 10:27:47;;;;;;;1.38;0.95;;;;;;;18.10;100.00;100328.88;5007707;28;20119;-81
2023/07/31 10:30:16;;;;;;;3.20;1.25;;;;;;;18.12;100.00;100323.56;5007163;28;20418;-81
2023/07/31 10:32:43;;;;;;;1.38;1.20;;;;;;;18.15;100.00;100336.84;5006168;28;20034;-81
2023/07/31 10:35:10;;;;;;;2.28;1.00;;;;;;;18.10;100.00;100334.53;5001870;28;20081;-80
2023/07/31 10:37:42;;;;;;;1.70;1.25;;;;;;;18.20;100.00;100341.97;5023679;28;20022;-80
2023/07/31 10:40:25;;;;;;;1.50;0.90;;;;;;;18.21;100.00;100332.22;4994403;28;20108;-81
2023/07/31 10:42:58;;;;;;;1.40;1.30;;;;;;;18.10;100.00;100309.84;5005096;28;20065;-81
2023/07/31 10:45:26;;;;;;;1.30;1.00;;;;;;;18.10;100.00;100334.53;5003651;28;20034;-81
2023/07/31 10:48:15;;;;;;;1.65;1.30;;;;;;;18.09;100.00;100313.94;4990758;28;20030;-82
2023/07/31 10:50:52;;;;;;;1.48;1.35;;;;;;;18.17;100.00;100318.19;5008716;28;20030;-81
2023/07/31 10:53:31;;;;;;;2.60;1.42;;;;;;;18.34;100.00;100318.94;4998953;28;20038;-81
2023/07/31 10:56:04;;;;;;;3.17;1.65;;;;;;;18.36;100.00;100327.81;5007218;28;20022;-81
2023/07/31 10:58:31;;;;;;;3.53;1.40;;;;;;;18.36;100.00;100307.16;5006382;28;20037;-82
2023/07/31 11:00:59;;;;;;;2.03;1.35;;;;;;;18.39;100.00;100307.06;5007192;28;20022;-81
2023/07/31 11:03:27;;;;;;;1.67;1.35;;;;;;;18.52;100.00;100312.00;5008846;28;20121;-82
2023/07/31 11:05:58;;;;;;;1.55;1.23;;;;;;;18.58;100.00;100327.22;5001775;28;20474;-82
2023/07/31 11:08:29;;;;;;;2.80;1.20;;;;;;;18.44;100.00;100317.84;5011519;28;20407;-82
2023/07/31 11:11:01;;;;;;;1.15;1.05;;;;;;;18.55;100.00;100323.25;4994809;28;20406;-82
2023/07/31 11:13:26;;;;;;;2.00;1.05;;;;;;;18.43;100.00;100307.75;5007840;28;20272;-82